Hordafor III — LLVC — position and weather

sailwx.info

Track history (hours):
 
Tides and Currents Weather Stations Pressure Air Temp Water Temp Dewpoint Dewpoint Depression Visibility Wind Speed Wind Dir Waves Ship Positions

Hordafor III

Last reported at 2017-Sep-25 02:30 UTC. Time now 2017-Sep-25 02:46 UTC.
Position N 60°24' E 005°19'.

Length 50 m.

Type: Cargo ship. MMSI: 258044000.

Date/timePositionNaut miles runAvg speedWind from/ knotsBaromVisibWave heightAir tempDewpointWater temp
2017-Sep-25 02:30N 60°24' E 005°19'0 0.0
2017-Sep-25 02:00N 60°24' E 005°19'0 0.0
2017-Sep-25 01:30N 60°24' E 005°19'0 0.0
2017-Sep-25 01:00N 60°24' E 005°19'0 0.0
2017-Sep-25 00:30N 60°24' E 005°19'0 0.0
2017-Sep-25 00:00N 60°24' E 005°19'0 0.0
2017-Sep-24 23:30N 60°24' E 005°19'0 0.0
2017-Sep-24 22:59N 60°24' E 005°19'0 0.0
2017-Sep-24 22:30N 60°24' E 005°19'0 0.0
2017-Sep-24 22:00N 60°24' E 005°19'1 1.9
2017-Sep-24 21:30N 60°24' E 005°17'4 8.9
2017-Sep-24 21:00N 60°21' E 005°10'4 7.1
2017-Sep-24 20:30N 60°18' E 005°12'510.0
2017-Sep-24 20:00N 60°13' E 005°11'510.5
2017-Sep-24 19:30N 60°07' E 005°11'510.4
2017-Sep-24 19:00N 60°02' E 005°10'3 5.0
2017-Sep-24 18:30N 60°00' E 005°07'0 0.0
2017-Sep-24 18:00N 60°00' E 005°07'0 0.0
2017-Sep-24 17:30N 60°00' E 005°07'0 0.0
2017-Sep-24 17:00N 60°00' E 005°07'0 0.0
2017-Sep-24 16:30N 60°00' E 005°07'0 0.0
2017-Sep-24 16:00N 60°00' E 005°07'0 0.0
2017-Sep-24 15:30N 60°00' E 005°07'0 0.0
2017-Sep-24 15:00N 60°00' E 005°07'2 3.2
2017-Sep-24 14:31N 59°59' E 005°06'5 9.3
2017-Sep-24 14:00N 59°55' E 005°11'5 9.4
2017-Sep-24 13:29N 59°51' E 005°16'5 9.7
2017-Sep-24 13:00N 59°46' E 005°21'5 9.8
2017-Sep-24 12:29N 59°42' E 005°24'2 4.0
2017-Sep-24 12:00N 59°40' E 005°22'2 4.4
2017-Sep-24 11:30N 59°38' E 005°19'611.5
2017-Sep-24 10:59N 59°33' E 005°14'510.6
2017-Sep-24 10:30N 59°28' E 005°13'3 6.8
2017-Sep-24 10:00N 59°25' E 005°16'0 0.1
2017-Sep-24 09:30N 59°25' E 005°16'2 4.9
2017-Sep-24 09:00N 59°23' E 005°18'510.5
2017-Sep-24 08:31N 59°17' E 005°20'510.2
2017-Sep-24 08:00N 59°12' E 005°21'4 7.2
2017-Sep-24 07:30N 59°09' E 005°20'611.5
2017-Sep-24 07:00N 59°14' E 005°20'3 5.5
2017-Sep-24 06:30N 59°17' E 005°19'0 0.0
2017-Sep-24 06:00N 59°17' E 005°19'0 0.0
2017-Sep-24 05:30N 59°17' E 005°19'0 0.0
2017-Sep-24 05:00N 59°17' E 005°19'0 0.0
2017-Sep-24 04:30N 59°17' E 005°19'0 0.0
2017-Sep-24 04:00N 59°17' E 005°19'0 0.0
2017-Sep-24 03:30N 59°17' E 005°19'0 0.0
2017-Sep-24 03:00N 59°17' E 005°19'0 0.0
2017-Sep-24 02:30N 59°17' E 005°19'0 0.0
2017-Sep-24 02:00N 59°17' E 005°19'0 0.0
2017-Sep-24 01:30N 59°17' E 005°19'0 0.0
2017-Sep-24 01:00N 59°17' E 005°19'0 0.0
2017-Sep-24 00:30N 59°17' E 005°19'0 0.0
2017-Sep-24 00:01N 59°17' E 005°19'0 0.0
2017-Sep-23 23:30N 59°17' E 005°19'0 0.0
2017-Sep-23 23:00N 59°17' E 005°19'0 0.0
2017-Sep-23 22:30N 59°17' E 005°19'0 0.0
2017-Sep-23 22:00N 59°17' E 005°19'0 0.0
2017-Sep-23 21:31N 59°17' E 005°19'0 0.0
2017-Sep-23 21:00N 59°17' E 005°19'0 0.0
2017-Sep-23 20:30N 59°17' E 005°19'0 0.0
2017-Sep-23 20:00N 59°17' E 005°19'3 0.1
2017-Sep-22 02:00N 59°20' E 005°18'0 0.0
2017-Sep-22 01:30N 59°20' E 005°18'0 0.0
2017-Sep-22 01:00N 59°20' E 005°18'0 0.0
2017-Sep-22 00:30N 59°20' E 005°18'0 0.0
2017-Sep-22 00:00N 59°20' E 005°18'0 0.0
2017-Sep-21 23:30N 59°20' E 005°18'0 0.0
2017-Sep-21 23:00N 59°20' E 005°18'0 0.8
2017-Sep-21 22:30N 59°20' E 005°18'4 8.9
2017-Sep-21 22:00N 59°16' E 005°21'4 8.6
2017-Sep-21 21:30N 59°13' E 005°28'4 7.0
2017-Sep-21 21:00N 59°13' E 005°34'5 9.4
2017-Sep-21 20:30N 59°16' E 005°42'5 9.3
2017-Sep-21 20:00N 59°18' E 005°50'3 6.3
2017-Sep-21 19:30N 59°18' E 005°56'0 0.0
2017-Sep-21 19:00N 59°18' E 005°56'0 0.0
2017-Sep-21 18:30N 59°18' E 005°56'0 0.0
2017-Sep-21 18:00N 59°18' E 005°56'1 2.9
2017-Sep-21 17:30N 59°18' E 005°59'0 0.0
2017-Sep-21 17:00N 59°18' E 005°59'0 0.0
2017-Sep-21 16:30N 59°18' E 005°59'3 6.9
2017-Sep-21 16:00N 59°18' E 005°53'5 9.5
2017-Sep-21 15:30N 59°16' E 005°44'5 9.6
2017-Sep-21 15:01N 59°13' E 005°36'4 8.3
2017-Sep-21 14:31N 59°13' E 005°28'4 8.4
2017-Sep-21 14:00N 59°15' E 005°21'4 8.6
2017-Sep-21 13:30N 59°19' E 005°20'5 9.7
2017-Sep-21 13:00N 59°24' E 005°17'1 2.4
2017-Sep-21 12:30N 59°25' E 005°15'0 0.0
2017-Sep-21 12:00N 59°25' E 005°15'0 0.0
2017-Sep-21 11:30N 59°25' E 005°15'0 0.0
2017-Sep-21 11:00N 59°25' E 005°15'0 0.0
2017-Sep-21 10:30N 59°25' E 005°15'0 0.0
2017-Sep-21 10:00N 59°25' E 005°15'0 0.0
2017-Sep-21 09:30N 59°25' E 005°15'0 0.0
2017-Sep-21 09:00N 59°25' E 005°15'0 0.0
2017-Sep-21 08:30N 59°25' E 005°15'0 0.0
2017-Sep-21 08:00N 59°25' E 005°15'0 0.0
2017-Sep-21 07:29N 59°25' E 005°15'0 0.0
2017-Sep-21 06:59N 59°25' E 005°15'0 0.0
2017-Sep-21 06:30N 59°25' E 005°15'0 0.3
2017-Sep-21 06:00N 59°25' E 005°15'0 0.6
2017-Sep-21 05:30N 59°24' E 005°15'0 0.0
2017-Sep-21 05:00N 59°24' E 005°15'0 0.0
2017-Sep-21 04:30N 59°24' E 005°15'0 0.0
2017-Sep-21 03:59N 59°24' E 005°15'0 0.0
2017-Sep-21 03:30N 59°24' E 005°15'3 5.3
2017-Sep-21 03:01N 59°27' E 005°14'5 9.8
2017-Sep-21 02:30N 59°32' E 005°13'510.1
2017-Sep-21 02:00N 59°36' E 005°17'510.4
2017-Sep-21 01:30N 59°41' E 005°23'5 9.2
2017-Sep-21 01:00N 59°45' E 005°22'510.1
2017-Sep-21 00:30N 59°50' E 005°17'5 9.7
2017-Sep-21 00:00N 59°54' E 005°12'3 5.9
2017-Sep-20 23:30N 59°57' E 005°09'2 4.5
2017-Sep-20 23:00N 59°58' E 005°07'5 9.8
2017-Sep-20 22:30N 60°03' E 005°09'3 6.6
2017-Sep-20 22:00N 60°06' E 005°13'0 0.0
2017-Sep-20 21:30N 60°06' E 005°13'0 0.0
2017-Sep-20 21:00N 60°06' E 005°13'0 0.1
2017-Sep-20 20:30N 60°06' E 005°13'3 5.9
2017-Sep-20 20:01N 60°03' E 005°10'3 6.2
2017-Sep-20 19:30N 60°00' E 005°07'4 8.7
2017-Sep-20 19:00N 59°56' E 005°05'2 4.7
2017-Sep-20 18:30N 59°54' E 005°06'0 0.0
2017-Sep-20 18:00N 59°54' E 005°06'0 0.0
2017-Sep-20 17:30N 59°54' E 005°06'0 0.0
2017-Sep-20 17:00N 59°54' E 005°06'0 0.0
2017-Sep-20 16:30N 59°54' E 005°06'0 0.0
2017-Sep-20 16:01N 59°54' E 005°06'0 0.0
2017-Sep-20 15:30N 59°54' E 005°06'0 0.0
2017-Sep-20 15:00N 59°54' E 005°06'3 2.9
2017-Sep-20 14:00N 59°56' E 005°08'5 9.8
2017-Sep-20 13:30N 59°59' E 005°17'4 9.1
2017-Sep-20 13:00N 60°03' E 005°19'4 8.0
2017-Sep-20 12:30N 60°07' E 005°16'0 0.1
2017-Sep-20 12:00N 60°07' E 005°16'3 5.1
2017-Sep-20 11:30N 60°09' E 005°14'0 0.0
2017-Sep-20 11:00N 60°09' E 005°14'1 1.4
2017-Sep-20 10:30N 60°10' E 005°13'0 0.0
2017-Sep-20 10:00N 60°10' E 005°13'2 4.9
2017-Sep-20 09:30N 60°12' E 005°11'510.3
2017-Sep-20 09:00N 60°17' E 005°09'5 9.6
2017-Sep-20 08:29N 60°22' E 005°10'4 9.0
2017-Sep-20 08:00N 60°24' E 005°18'1 1.4
2017-Sep-20 07:29N 60°24' E 005°19'0 0.0
2017-Sep-20 07:00N 60°24' E 005°19'0 0.0
2017-Sep-20 06:30N 60°24' E 005°19'0 0.0
2017-Sep-20 06:00N 60°24' E 005°19'0 0.0
2017-Sep-20 05:30N 60°24' E 005°19'0 0.0
2017-Sep-20 04:59N 60°24' E 005°19'0 0.0
2017-Sep-20 04:30N 60°24' E 005°19'0 0.0
2017-Sep-20 04:00N 60°24' E 005°19'0 0.0
2017-Sep-20 03:30N 60°24' E 005°19'0 0.0
2017-Sep-20 03:00N 60°24' E 005°19'0 0.0
2017-Sep-20 02:30N 60°24' E 005°19'0 0.0
2017-Sep-20 02:00N 60°24' E 005°19'0 0.0
2017-Sep-20 01:29N 60°24' E 005°19'0 0.0
2017-Sep-20 01:00N 60°24' E 005°19'0 0.0
2017-Sep-20 00:30N 60°24' E 005°19'0 0.0
2017-Sep-20 00:00N 60°24' E 005°19'0 0.0
2017-Sep-19 23:30N 60°24' E 005°19'0 0.0
2017-Sep-19 23:00N 60°24' E 005°19'0 0.0
2017-Sep-19 22:30N 60°24' E 005°19'0 0.0
2017-Sep-19 22:00N 60°24' E 005°19'0 0.0
2017-Sep-19 21:30N 60°24' E 005°19'0 0.0
2017-Sep-19 20:59N 60°24' E 005°19'0 0.0
2017-Sep-19 20:30N 60°24' E 005°19'0 0.0
2017-Sep-19 20:01N 60°24' E 005°19'0 0.0
2017-Sep-19 19:30N 60°24' E 005°19'0 0.0
2017-Sep-19 19:00N 60°24' E 005°19'0 0.0
2017-Sep-19 18:30N 60°24' E 005°19'0 0.0
2017-Sep-19 18:00N 60°24' E 005°19'0 0.0
2017-Sep-19 17:30N 60°24' E 005°19'0 0.0
2017-Sep-19 17:00N 60°24' E 005°19'0 0.0
2017-Sep-19 16:30N 60°24' E 005°19'2 4.8
2017-Sep-19 16:00N 60°24' E 005°14'0 0.3
2017-Sep-19 15:30N 60°24' E 005°14'1 1.8
2017-Sep-19 15:00N 60°23' E 005°12'4 7.5
2017-Sep-19 14:30N 60°20' E 005°10'510.8
2017-Sep-19 14:00N 60°14' E 005°10'510.9
2017-Sep-19 13:30N 60°09' E 005°11'510.7
2017-Sep-19 13:00N 60°04' E 005°10'4 7.0
2017-Sep-19 12:30N 60°01' E 005°05'0 0.0
2017-Sep-19 12:00N 60°01' E 005°05'2 3.3
2017-Sep-19 11:30N 60°00' E 005°07'0 0.0
2017-Sep-19 11:00N 60°00' E 005°07'0 0.0
2017-Sep-19 10:30N 60°00' E 005°07'0 0.0
2017-Sep-19 10:00N 60°00' E 005°07'0 0.0
2017-Sep-19 09:30N 60°00' E 005°07'1 1.4
2017-Sep-19 09:00N 60°01' E 005°08'1 2.3
2017-Sep-19 08:30N 60°01' E 005°10'0 0.3
2017-Sep-19 08:00N 60°01' E 005°10'4 7.7
2017-Sep-19 07:30N 59°60' E 005°18'510.2
2017-Sep-19 07:00N 60°05' E 005°21'4 7.4
2017-Sep-19 06:30N 60°04' E 005°28'0 0.9
2017-Sep-19 06:00N 60°05' E 005°28'0 0.0
2017-Sep-19 05:29N 60°05' E 005°28'0 0.9
2017-Sep-19 05:00N 60°05' E 005°29'0 0.6
2017-Sep-19 04:30N 60°05' E 005°28'0 0.5
2017-Sep-19 04:00N 60°05' E 005°28'0 0.3
2017-Sep-19 03:30N 60°05' E 005°28'0 0.3
2017-Sep-19 03:00N 60°06' E 005°27'1 2.5
2017-Sep-19 02:30N 60°06' E 005°25'3 6.9
2017-Sep-19 02:00N 60°07' E 005°19'4 8.0
2017-Sep-19 01:30N 60°11' E 005°14'4 7.9
2017-Sep-19 01:00N 60°14' E 005°10'4 8.0
2017-Sep-19 00:30N 60°18' E 005°08'4 8.1
2017-Sep-19 00:00N 60°22' E 005°10'4 7.4
2017-Sep-18 23:30N 60°25' E 005°05'4 7.5
2017-Sep-18 23:01N 60°28' E 005°01'4 7.7
2017-Sep-18 22:31N 60°31' E 004°58'4 7.8
2017-Sep-18 22:00N 60°35' E 004°54'4 7.9
2017-Sep-18 21:30N 60°38' E 004°52'4 7.7
2017-Sep-18 21:00N 60°42' E 004°49'4 7.8
2017-Sep-18 20:30N 60°46' E 004°46'4 7.6
2017-Sep-18 20:00N 60°49' E 004°44'4 7.7
2017-Sep-18 19:30N 60°53' E 004°46'4 7.8
2017-Sep-18 19:00N 60°57' E 004°45'4 7.5
2017-Sep-18 18:30N 61°00' E 004°49'4 8.0
2017-Sep-18 18:00N 61°03' E 004°56'4 7.8
2017-Sep-18 17:30N 61°06' E 005°01'4 7.3
2017-Sep-18 17:00N 61°09' E 005°01'3 6.7
2017-Sep-18 16:30N 61°12' E 005°02'4 7.7
2017-Sep-18 16:00N 61°13' E 005°10'3 5.6
2017-Sep-18 15:30N 61°12' E 005°16'0 0.2
2017-Sep-18 15:00N 61°12' E 005°16'5 9.8
2017-Sep-18 14:30N 61°13' E 005°05'4 8.0
2017-Sep-18 14:00N 61°09' E 005°01'510.5
2017-Sep-18 13:30N 61°04' E 005°02'3 6.5
2017-Sep-18 13:00N 61°01' E 005°00'0 0.6
2017-Sep-18 12:30N 61°01' E 005°01'1 3.0
2017-Sep-18 12:00N 60°59' E 005°02'3 6.9
2017-Sep-18 11:29N 60°57' E 004°56'5 9.9
2017-Sep-18 11:00N 60°53' E 004°58'4 9.0
2017-Sep-18 10:30N 60°48' E 004°57'0 0.0
2017-Sep-18 10:00N 60°48' E 004°57'0 0.0
2017-Sep-18 09:30N 60°48' E 004°57'0 0.0
2017-Sep-18 09:00N 60°48' E 004°57'1 2.3
2017-Sep-18 08:30N 60°49' E 004°57'3 6.5
2017-Sep-18 08:00N 60°51' E 005°03'2 3.2
2017-Sep-18 07:30N 60°53' E 005°02'0 0.4
2017-Sep-18 07:00N 60°53' E 005°02'0 0.7
2017-Sep-18 06:29N 60°53' E 005°02'1 1.7
2017-Sep-18 06:00N 60°52' E 005°02'2 4.0
2017-Sep-18 05:30N 60°50' E 005°02'3 6.0
2017-Sep-18 05:00N 60°51' E 004°56'3 6.5
2017-Sep-18 04:30N 60°51' E 004°49'3 6.3
2017-Sep-18 04:00N 60°49' E 004°44'4 8.4
2017-Sep-18 03:30N 60°45' E 004°47'4 8.8
2017-Sep-18 03:00N 60°41' E 004°50'5 9.4
2017-Sep-18 02:30N 60°37' E 004°54'5 9.6
2017-Sep-18 01:59N 60°32' E 004°57'510.1
2017-Sep-18 01:30N 60°27' E 005°01'5 9.6
2017-Sep-18 01:00N 60°24' E 005°08'4 8.5
2017-Sep-18 00:30N 60°20' E 005°09'5 9.4
2017-Sep-18 00:00N 60°15' E 005°09'5 9.6
2017-Sep-17 23:30N 60°11' E 005°14'4 8.0
2017-Sep-17 23:00N 60°07' E 005°16'0 0.0
2017-Sep-17 22:29N 60°07' E 005°16'2 5.1
2017-Sep-17 22:00N 60°09' E 005°15'4 8.3
2017-Sep-17 21:30N 60°13' E 005°13'0 0.0
2017-Sep-17 21:00N 60°13' E 005°13'1 2.2
2017-Sep-17 20:30N 60°13' E 005°10'4 8.7
2017-Sep-17 20:00N 60°18' E 005°12'3 6.6
2017-Sep-17 19:29N 60°14' E 005°09'510.7
2017-Sep-17 18:59N 60°09' E 005°11'510.5
2017-Sep-17 18:29N 60°04' E 005°10'4 7.7
2017-Sep-17 18:00N 60°01' E 005°05'0 0.1
2017-Sep-17 17:30N 60°01' E 005°05'0 0.0
2017-Sep-17 17:00N 60°01' E 005°05'0 0.0
2017-Sep-17 16:30N 60°01' E 005°05'0 0.0
2017-Sep-17 16:00N 60°01' E 005°05'0 0.0
2017-Sep-17 15:30N 60°01' E 005°05'0 0.0
2017-Sep-17 15:00N 60°01' E 005°05'0 0.0
2017-Sep-17 14:30N 60°01' E 005°05'0 0.0
2017-Sep-17 14:01N 60°01' E 005°05'0 0.2
2017-Sep-17 13:30N 60°01' E 005°05'4 8.7
2017-Sep-17 13:00N 60°05' E 005°08'3 6.4
2017-Sep-17 12:30N 60°08' E 005°07'3 5.8
2017-Sep-17 12:00N 60°10' E 005°11'1 1.7
2017-Sep-17 11:29N 60°10' E 005°13'1 1.4
2017-Sep-17 10:59N 60°09' E 005°14'0 0.0
2017-Sep-17 10:30N 60°09' E 005°14'1 2.0
2017-Sep-17 10:00N 60°09' E 005°16'510.9
2017-Sep-17 09:30N 60°04' E 005°19'510.8
2017-Sep-17 09:00N 59°59' E 005°23'611.7
2017-Sep-17 08:30N 59°54' E 005°31'611.3
2017-Sep-17 08:00N 59°49' E 005°33'2 4.8
2017-Sep-17 07:30N 59°47' E 005°30'0 0.0
2017-Sep-17 06:59N 59°47' E 005°30'0 0.0
2017-Sep-17 06:30N 59°47' E 005°30'0 0.0
2017-Sep-17 06:00N 59°47' E 005°30'0 0.0
2017-Sep-17 05:30N 59°47' E 005°30'0 0.0
2017-Sep-17 05:00N 59°47' E 005°30'0 0.0
2017-Sep-17 04:30N 59°47' E 005°30'0 0.0
2017-Sep-17 04:00N 59°47' E 005°30'0 0.0
2017-Sep-17 03:30N 59°47' E 005°30'0 0.0
2017-Sep-17 03:00N 59°47' E 005°30'0 0.0
2017-Sep-17 02:30N 59°47' E 005°30'0 0.0
2017-Sep-17 02:00N 59°47' E 005°30'0 0.0
2017-Sep-17 01:31N 59°47' E 005°30'0 0.0
2017-Sep-17 01:00N 59°47' E 005°30'0 0.0
2017-Sep-17 00:30N 59°47' E 005°30'0 0.0
2017-Sep-17 00:00N 59°47' E 005°30'0 0.0
2017-Sep-16 23:30N 59°47' E 005°30'0 0.0
2017-Sep-16 23:00N 59°47' E 005°30'0 0.0
2017-Sep-16 22:30N 59°47' E 005°30'0 0.0
2017-Sep-16 22:00N 59°47' E 005°30'0 0.0
2017-Sep-16 21:30N 59°47' E 005°30'0 0.0
2017-Sep-16 20:59N 59°47' E 005°30'0 0.0
2017-Sep-16 20:30N 59°47' E 005°30'0 0.0
2017-Sep-16 20:00N 59°47' E 005°30'0 0.0
2017-Sep-16 19:30N 59°47' E 005°30'0 0.0
2017-Sep-16 18:59N 59°47' E 005°30'0 0.0
2017-Sep-16 18:30N 59°47' E 005°30'0 0.0
2017-Sep-16 18:00N 59°47' E 005°30'0 0.0
2017-Sep-16 17:30N 59°47' E 005°30'0 0.0
2017-Sep-16 17:00N 59°47' E 005°30'0 0.0
2017-Sep-16 16:29N 59°47' E 005°30'0 0.0
2017-Sep-16 16:00N 59°47' E 005°30'0 0.0
2017-Sep-16 15:30N 59°47' E 005°30'0 0.0
2017-Sep-16 15:00N 59°47' E 005°30'0 0.0
2017-Sep-16 14:30N 59°47' E 005°30'0 0.0
2017-Sep-16 14:00N 59°47' E 005°30'0 0.0
2017-Sep-16 13:30N 59°47' E 005°30'0 0.0
2017-Sep-16 13:00N 59°47' E 005°30'0 0.0
2017-Sep-16 12:31N 59°47' E 005°30'0 0.0
2017-Sep-16 12:01N 59°47' E 005°30'0 0.0
2017-Sep-16 11:30N 59°47' E 005°30'0 0.2
2017-Sep-16 11:00N 59°47' E 005°30'3 7.0
2017-Sep-16 10:30N 59°50' E 005°33'510.2
2017-Sep-16 10:00N 59°55' E 005°30'3 5.4
2017-Sep-16 09:30N 59°57' E 005°27'5 9.0
2017-Sep-16 09:00N 59°59' E 005°19'5 9.5
2017-Sep-16 08:30N 60°01' E 005°10'1 1.1
2017-Sep-16 08:00N 60°02' E 005°10'2 3.7
2017-Sep-16 07:30N 60°02' E 005°07'1 2.5
2017-Sep-16 07:00N 60°01' E 005°05'2 3.3
2017-Sep-16 06:30N 60°00' E 005°07'0 0.0
2017-Sep-16 06:00N 60°00' E 005°07'0 0.0
2017-Sep-16 05:30N 60°00' E 005°07'0 0.0
2017-Sep-16 05:00N 60°00' E 005°07'0 0.0
2017-Sep-16 04:30N 60°00' E 005°07'0 0.0
2017-Sep-16 04:00N 60°00' E 005°07'0 0.0
2017-Sep-16 03:30N 60°00' E 005°07'0 0.0
2017-Sep-16 03:00N 60°00' E 005°07'0 0.0
2017-Sep-16 02:30N 60°00' E 005°07'0 0.0
2017-Sep-16 02:00N 60°00' E 005°07'0 0.0
2017-Sep-16 01:30N 60°00' E 005°07'0 0.0
2017-Sep-16 01:00N 60°00' E 005°07'0 0.0
2017-Sep-16 00:30N 60°00' E 005°07'0 0.0
2017-Sep-16 00:00N 60°00' E 005°07'0 0.0
2017-Sep-15 23:30N 60°00' E 005°07'0 0.0
2017-Sep-15 23:00N 60°00' E 005°07'0 0.0
2017-Sep-15 22:30N 60°00' E 005°07'0 0.0
2017-Sep-15 22:00N 60°00' E 005°07'0 0.0
2017-Sep-15 21:30N 60°00' E 005°07'0 0.0
2017-Sep-15 21:00N 60°00' E 005°07'0 0.0
2017-Sep-15 20:30N 60°00' E 005°07'0 0.0
2017-Sep-15 19:59N 60°00' E 005°07'0 0.0
2017-Sep-15 19:29N 60°00' E 005°07'0 0.0
2017-Sep-15 19:00N 60°00' E 005°07'0 0.0
2017-Sep-15 18:30N 60°00' E 005°07'0 0.0
2017-Sep-15 18:00N 60°00' E 005°07'0 0.0
2017-Sep-15 17:29N 60°00' E 005°07'0 0.0
2017-Sep-15 17:00N 60°00' E 005°07'0 0.0
2017-Sep-15 16:30N 60°00' E 005°07'0 0.0
2017-Sep-15 16:00N 60°00' E 005°07'3 6.5
2017-Sep-15 15:30N 60°03' E 005°10'510.1
2017-Sep-15 15:00N 60°08' E 005°12'4 8.6
2017-Sep-15 14:30N 60°07' E 005°21'2 3.1
2017-Sep-15 14:01N 60°08' E 005°24'3 5.9
2017-Sep-15 13:30N 60°09' E 005°18'4 8.3
2017-Sep-15 13:00N 60°10' E 005°11'3 5.3
2017-Sep-15 12:30N 60°08' E 005°07'0 0.0
2017-Sep-15 12:00N 60°08' E 005°07'0 0.1
2017-Sep-15 11:30N 60°08' E 005°07'0 0.0
2017-Sep-15 11:00N 60°08' E 005°07'0 0.0
2017-Sep-15 10:30N 60°08' E 005°07'0 0.0
2017-Sep-15 10:00N 60°08' E 005°07'0 0.0
2017-Sep-15 09:30N 60°08' E 005°07'0 0.0
2017-Sep-15 08:59N 60°08' E 005°07'0 0.0
2017-Sep-15 08:30N 60°08' E 005°07'0 0.3
2017-Sep-15 08:01N 60°08' E 005°07'0 0.2
2017-Sep-15 07:30N 60°08' E 005°07'5 9.8
2017-Sep-15 07:00N 60°04' E 005°08'3 5.5
2017-Sep-15 06:30N 60°01' E 005°05'1 2.5
2017-Sep-15 06:00N 60°02' E 005°07'510.2
2017-Sep-15 05:30N 60°07' E 005°11'510.4
2017-Sep-15 05:00N 60°12' E 005°11'510.6
2017-Sep-15 04:31N 60°17' E 005°09'5 9.6
2017-Sep-15 04:00N 60°22' E 005°10'5 9.5
2017-Sep-15 03:30N 60°25' E 005°03'510.5
2017-Sep-15 03:00N 60°30' E 004°59'510.6
2017-Sep-15 02:30N 60°35' E 004°55'  
Track history (hours):
 
Tides and Currents Weather Stations Pressure Air Temp Water Temp Dewpoint Dewpoint Depression Visibility Wind Speed Wind Dir Waves Ship Positions

Hordafor III

Last reported at 2017-Sep-25 02:30 UTC. Time now 2017-Sep-25 02:46 UTC.
Position N 60°24' E 005°19'.

Length 50 m.

Type: Cargo ship. MMSI: 258044000.

Date/timePositionNaut miles runAvg speedWind from/ knotsBaromVisibWave heightAir tempDewpointWater temp
2017-Sep-25 02:30N 60°24' E 005°19'0 0.0
2017-Sep-25 02:00N 60°24' E 005°19'0 0.0
2017-Sep-25 01:30N 60°24' E 005°19'0 0.0
2017-Sep-25 01:00N 60°24' E 005°19'0 0.0
2017-Sep-25 00:30N 60°24' E 005°19'0 0.0
2017-Sep-25 00:00N 60°24' E 005°19'0 0.0
2017-Sep-24 23:30N 60°24' E 005°19'0 0.0
2017-Sep-24 22:59N 60°24' E 005°19'0 0.0
2017-Sep-24 22:30N 60°24' E 005°19'0 0.0
2017-Sep-24 22:00N 60°24' E 005°19'1 1.9
2017-Sep-24 21:30N 60°24' E 005°17'4 8.9
2017-Sep-24 21:00N 60°21' E 005°10'4 7.1
2017-Sep-24 20:30N 60°18' E 005°12'510.0
2017-Sep-24 20:00N 60°13' E 005°11'510.5
2017-Sep-24 19:30N 60°07' E 005°11'510.4
2017-Sep-24 19:00N 60°02' E 005°10'3 5.0
2017-Sep-24 18:30N 60°00' E 005°07'0 0.0
2017-Sep-24 18:00N 60°00' E 005°07'0 0.0
2017-Sep-24 17:30N 60°00' E 005°07'0 0.0
2017-Sep-24 17:00N 60°00' E 005°07'0 0.0
2017-Sep-24 16:30N 60°00' E 005°07'0 0.0
2017-Sep-24 16:00N 60°00' E 005°07'0 0.0
2017-Sep-24 15:30N 60°00' E 005°07'0 0.0
2017-Sep-24 15:00N 60°00' E 005°07'2 3.2
2017-Sep-24 14:31N 59°59' E 005°06'5 9.3
2017-Sep-24 14:00N 59°55' E 005°11'5 9.4
2017-Sep-24 13:29N 59°51' E 005°16'5 9.7
2017-Sep-24 13:00N 59°46' E 005°21'5 9.8
2017-Sep-24 12:29N 59°42' E 005°24'2 4.0
2017-Sep-24 12:00N 59°40' E 005°22'2 4.4
2017-Sep-24 11:30N 59°38' E 005°19'611.5
2017-Sep-24 10:59N 59°33' E 005°14'510.6
2017-Sep-24 10:30N 59°28' E 005°13'3 6.8
2017-Sep-24 10:00N 59°25' E 005°16'0 0.1
2017-Sep-24 09:30N 59°25' E 005°16'2 4.9
2017-Sep-24 09:00N 59°23' E 005°18'510.5
2017-Sep-24 08:31N 59°17' E 005°20'510.2
2017-Sep-24 08:00N 59°12' E 005°21'4 7.2
2017-Sep-24 07:30N 59°09' E 005°20'611.5
2017-Sep-24 07:00N 59°14' E 005°20'3 5.5
2017-Sep-24 06:30N 59°17' E 005°19'0 0.0
2017-Sep-24 06:00N 59°17' E 005°19'0 0.0
2017-Sep-24 05:30N 59°17' E 005°19'0 0.0
2017-Sep-24 05:00N 59°17' E 005°19'0 0.0
2017-Sep-24 04:30N 59°17' E 005°19'0 0.0
2017-Sep-24 04:00N 59°17' E 005°19'0 0.0
2017-Sep-24 03:30N 59°17' E 005°19'0 0.0
2017-Sep-24 03:00N 59°17' E 005°19'0 0.0
2017-Sep-24 02:30N 59°17' E 005°19'0 0.0
2017-Sep-24 02:00N 59°17' E 005°19'0 0.0
2017-Sep-24 01:30N 59°17' E 005°19'0 0.0
2017-Sep-24 01:00N 59°17' E 005°19'0 0.0
2017-Sep-24 00:30N 59°17' E 005°19'0 0.0
2017-Sep-24 00:01N 59°17' E 005°19'0 0.0
2017-Sep-23 23:30N 59°17' E 005°19'0 0.0
2017-Sep-23 23:00N 59°17' E 005°19'0 0.0
2017-Sep-23 22:30N 59°17' E 005°19'0 0.0
2017-Sep-23 22:00N 59°17' E 005°19'0 0.0
2017-Sep-23 21:31N 59°17' E 005°19'0 0.0
2017-Sep-23 21:00N 59°17' E 005°19'0 0.0
2017-Sep-23 20:30N 59°17' E 005°19'0 0.0
2017-Sep-23 20:00N 59°17' E 005°19'3 0.1
2017-Sep-22 02:00N 59°20' E 005°18'0 0.0
2017-Sep-22 01:30N 59°20' E 005°18'0 0.0
2017-Sep-22 01:00N 59°20' E 005°18'0 0.0
2017-Sep-22 00:30N 59°20' E 005°18'0 0.0
2017-Sep-22 00:00N 59°20' E 005°18'0 0.0
2017-Sep-21 23:30N 59°20' E 005°18'0 0.0
2017-Sep-21 23:00N 59°20' E 005°18'0 0.8
2017-Sep-21 22:30N 59°20' E 005°18'4 8.9
2017-Sep-21 22:00N 59°16' E 005°21'4 8.6
2017-Sep-21 21:30N 59°13' E 005°28'4 7.0
2017-Sep-21 21:00N 59°13' E 005°34'5 9.4
2017-Sep-21 20:30N 59°16' E 005°42'5 9.3
2017-Sep-21 20:00N 59°18' E 005°50'3 6.3
2017-Sep-21 19:30N 59°18' E 005°56'0 0.0
2017-Sep-21 19:00N 59°18' E 005°56'0 0.0
2017-Sep-21 18:30N 59°18' E 005°56'0 0.0
2017-Sep-21 18:00N 59°18' E 005°56'1 2.9
2017-Sep-21 17:30N 59°18' E 005°59'0 0.0
2017-Sep-21 17:00N 59°18' E 005°59'0 0.0
2017-Sep-21 16:30N 59°18' E 005°59'3 6.9
2017-Sep-21 16:00N 59°18' E 005°53'5 9.5
2017-Sep-21 15:30N 59°16' E 005°44'5 9.6
2017-Sep-21 15:01N 59°13' E 005°36'4 8.3
2017-Sep-21 14:31N 59°13' E 005°28'4 8.4
2017-Sep-21 14:00N 59°15' E 005°21'4 8.6
2017-Sep-21 13:30N 59°19' E 005°20'5 9.7
2017-Sep-21 13:00N 59°24' E 005°17'1 2.4
2017-Sep-21 12:30N 59°25' E 005°15'0 0.0
2017-Sep-21 12:00N 59°25' E 005°15'0 0.0
2017-Sep-21 11:30N 59°25' E 005°15'0 0.0
2017-Sep-21 11:00N 59°25' E 005°15'0 0.0
2017-Sep-21 10:30N 59°25' E 005°15'0 0.0
2017-Sep-21 10:00N 59°25' E 005°15'0 0.0
2017-Sep-21 09:30N 59°25' E 005°15'0 0.0
2017-Sep-21 09:00N 59°25' E 005°15'0 0.0
2017-Sep-21 08:30N 59°25' E 005°15'0 0.0
2017-Sep-21 08:00N 59°25' E 005°15'0 0.0
2017-Sep-21 07:29N 59°25' E 005°15'0 0.0
2017-Sep-21 06:59N 59°25' E 005°15'0 0.0
2017-Sep-21 06:30N 59°25' E 005°15'0 0.3
2017-Sep-21 06:00N 59°25' E 005°15'0 0.6
2017-Sep-21 05:30N 59°24' E 005°15'0 0.0
2017-Sep-21 05:00N 59°24' E 005°15'0 0.0
2017-Sep-21 04:30N 59°24' E 005°15'0 0.0
2017-Sep-21 03:59N 59°24' E 005°15'0 0.0
2017-Sep-21 03:30N 59°24' E 005°15'3 5.3
2017-Sep-21 03:01N 59°27' E 005°14'5 9.8
2017-Sep-21 02:30N 59°32' E 005°13'510.1
2017-Sep-21 02:00N 59°36' E 005°17'510.4
2017-Sep-21 01:30N 59°41' E 005°23'5 9.2
2017-Sep-21 01:00N 59°45' E 005°22'510.1
2017-Sep-21 00:30N 59°50' E 005°17'5 9.7
2017-Sep-21 00:00N 59°54' E 005°12'3 5.9
2017-Sep-20 23:30N 59°57' E 005°09'2 4.5
2017-Sep-20 23:00N 59°58' E 005°07'5 9.8
2017-Sep-20 22:30N 60°03' E 005°09'3 6.6
2017-Sep-20 22:00N 60°06' E 005°13'0 0.0
2017-Sep-20 21:30N 60°06' E 005°13'0 0.0
2017-Sep-20 21:00N 60°06' E 005°13'0 0.1
2017-Sep-20 20:30N 60°06' E 005°13'3 5.9
2017-Sep-20 20:01N 60°03' E 005°10'3 6.2
2017-Sep-20 19:30N 60°00' E 005°07'4 8.7
2017-Sep-20 19:00N 59°56' E 005°05'2 4.7
2017-Sep-20 18:30N 59°54' E 005°06'0 0.0
2017-Sep-20 18:00N 59°54' E 005°06'0 0.0
2017-Sep-20 17:30N 59°54' E 005°06'0 0.0
2017-Sep-20 17:00N 59°54' E 005°06'0 0.0
2017-Sep-20 16:30N 59°54' E 005°06'0 0.0
2017-Sep-20 16:01N 59°54' E 005°06'0 0.0
2017-Sep-20 15:30N 59°54' E 005°06'0 0.0
2017-Sep-20 15:00N 59°54' E 005°06'3 2.9
2017-Sep-20 14:00N 59°56' E 005°08'5 9.8
2017-Sep-20 13:30N 59°59' E 005°17'4 9.1
2017-Sep-20 13:00N 60°03' E 005°19'4 8.0
2017-Sep-20 12:30N 60°07' E 005°16'0 0.1
2017-Sep-20 12:00N 60°07' E 005°16'3 5.1
2017-Sep-20 11:30N 60°09' E 005°14'0 0.0
2017-Sep-20 11:00N 60°09' E 005°14'1 1.4
2017-Sep-20 10:30N 60°10' E 005°13'0 0.0
2017-Sep-20 10:00N 60°10' E 005°13'2 4.9
2017-Sep-20 09:30N 60°12' E 005°11'510.3
2017-Sep-20 09:00N 60°17' E 005°09'5 9.6
2017-Sep-20 08:29N 60°22' E 005°10'4 9.0
2017-Sep-20 08:00N 60°24' E 005°18'1 1.4
2017-Sep-20 07:29N 60°24' E 005°19'0 0.0
2017-Sep-20 07:00N 60°24' E 005°19'0 0.0
2017-Sep-20 06:30N 60°24' E 005°19'0 0.0
2017-Sep-20 06:00N 60°24' E 005°19'0 0.0
2017-Sep-20 05:30N 60°24' E 005°19'0 0.0
2017-Sep-20 04:59N 60°24' E 005°19'0 0.0
2017-Sep-20 04:30N 60°24' E 005°19'0 0.0
2017-Sep-20 04:00N 60°24' E 005°19'0 0.0
2017-Sep-20 03:30N 60°24' E 005°19'0 0.0
2017-Sep-20 03:00N 60°24' E 005°19'0 0.0
2017-Sep-20 02:30N 60°24' E 005°19'0 0.0
2017-Sep-20 02:00N 60°24' E 005°19'0 0.0
2017-Sep-20 01:29N 60°24' E 005°19'0 0.0
2017-Sep-20 01:00N 60°24' E 005°19'0 0.0
2017-Sep-20 00:30N 60°24' E 005°19'0 0.0
2017-Sep-20 00:00N 60°24' E 005°19'0 0.0
2017-Sep-19 23:30N 60°24' E 005°19'0 0.0
2017-Sep-19 23:00N 60°24' E 005°19'0 0.0
2017-Sep-19 22:30N 60°24' E 005°19'0 0.0
2017-Sep-19 22:00N 60°24' E 005°19'0 0.0
2017-Sep-19 21:30N 60°24' E 005°19'0 0.0
2017-Sep-19 20:59N 60°24' E 005°19'0 0.0
2017-Sep-19 20:30N 60°24' E 005°19'0 0.0
2017-Sep-19 20:01N 60°24' E 005°19'0 0.0
2017-Sep-19 19:30N 60°24' E 005°19'0 0.0
2017-Sep-19 19:00N 60°24' E 005°19'0 0.0
2017-Sep-19 18:30N 60°24' E 005°19'0 0.0
2017-Sep-19 18:00N 60°24' E 005°19'0 0.0
2017-Sep-19 17:30N 60°24' E 005°19'0 0.0
2017-Sep-19 17:00N 60°24' E 005°19'0 0.0
2017-Sep-19 16:30N 60°24' E 005°19'2 4.8
2017-Sep-19 16:00N 60°24' E 005°14'0 0.3
2017-Sep-19 15:30N 60°24' E 005°14'1 1.8
2017-Sep-19 15:00N 60°23' E 005°12'4 7.5
2017-Sep-19 14:30N 60°20' E 005°10'510.8
2017-Sep-19 14:00N 60°14' E 005°10'510.9
2017-Sep-19 13:30N 60°09' E 005°11'510.7
2017-Sep-19 13:00N 60°04' E 005°10'4 7.0
2017-Sep-19 12:30N 60°01' E 005°05'0 0.0
2017-Sep-19 12:00N 60°01' E 005°05'2 3.3
2017-Sep-19 11:30N 60°00' E 005°07'0 0.0
2017-Sep-19 11:00N 60°00' E 005°07'0 0.0
2017-Sep-19 10:30N 60°00' E 005°07'0 0.0
2017-Sep-19 10:00N 60°00' E 005°07'0 0.0
2017-Sep-19 09:30N 60°00' E 005°07'1 1.4
2017-Sep-19 09:00N 60°01' E 005°08'1 2.3
2017-Sep-19 08:30N 60°01' E 005°10'0 0.3
2017-Sep-19 08:00N 60°01' E 005°10'4 7.7
2017-Sep-19 07:30N 59°60' E 005°18'510.2
2017-Sep-19 07:00N 60°05' E 005°21'4 7.4
2017-Sep-19 06:30N 60°04' E 005°28'0 0.9
2017-Sep-19 06:00N 60°05' E 005°28'0 0.0
2017-Sep-19 05:29N 60°05' E 005°28'0 0.9
2017-Sep-19 05:00N 60°05' E 005°29'0 0.6
2017-Sep-19 04:30N 60°05' E 005°28'0 0.5
2017-Sep-19 04:00N 60°05' E 005°28'0 0.3
2017-Sep-19 03:30N 60°05' E 005°28'0 0.3
2017-Sep-19 03:00N 60°06' E 005°27'1 2.5
2017-Sep-19 02:30N 60°06' E 005°25'3 6.9
2017-Sep-19 02:00N 60°07' E 005°19'4 8.0
2017-Sep-19 01:30N 60°11' E 005°14'4 7.9
2017-Sep-19 01:00N 60°14' E 005°10'4 8.0
2017-Sep-19 00:30N 60°18' E 005°08'4 8.1
2017-Sep-19 00:00N 60°22' E 005°10'4 7.4
2017-Sep-18 23:30N 60°25' E 005°05'4 7.5
2017-Sep-18 23:01N 60°28' E 005°01'4 7.7
2017-Sep-18 22:31N 60°31' E 004°58'4 7.8
2017-Sep-18 22:00N 60°35' E 004°54'4 7.9
2017-Sep-18 21:30N 60°38' E 004°52'4 7.7
2017-Sep-18 21:00N 60°42' E 004°49'4 7.8
2017-Sep-18 20:30N 60°46' E 004°46'4 7.6
2017-Sep-18 20:00N 60°49' E 004°44'4 7.7
2017-Sep-18 19:30N 60°53' E 004°46'4 7.8
2017-Sep-18 19:00N 60°57' E 004°45'4 7.5
2017-Sep-18 18:30N 61°00' E 004°49'4 8.0
2017-Sep-18 18:00N 61°03' E 004°56'4 7.8
2017-Sep-18 17:30N 61°06' E 005°01'4 7.3
2017-Sep-18 17:00N 61°09' E 005°01'3 6.7
2017-Sep-18 16:30N 61°12' E 005°02'4 7.7
2017-Sep-18 16:00N 61°13' E 005°10'3 5.6
2017-Sep-18 15:30N 61°12' E 005°16'0 0.2
2017-Sep-18 15:00N 61°12' E 005°16'5 9.8
2017-Sep-18 14:30N 61°13' E 005°05'4 8.0
2017-Sep-18 14:00N 61°09' E 005°01'510.5
2017-Sep-18 13:30N 61°04' E 005°02'3 6.5
2017-Sep-18 13:00N 61°01' E 005°00'0 0.6
2017-Sep-18 12:30N 61°01' E 005°01'1 3.0
2017-Sep-18 12:00N 60°59' E 005°02'3 6.9
2017-Sep-18 11:29N 60°57' E 004°56'5 9.9
2017-Sep-18 11:00N 60°53' E 004°58'4 9.0
2017-Sep-18 10:30N 60°48' E 004°57'0 0.0
2017-Sep-18 10:00N 60°48' E 004°57'0 0.0
2017-Sep-18 09:30N 60°48' E 004°57'0 0.0
2017-Sep-18 09:00N 60°48' E 004°57'1 2.3
2017-Sep-18 08:30N 60°49' E 004°57'3 6.5
2017-Sep-18 08:00N 60°51' E 005°03'2 3.2
2017-Sep-18 07:30N 60°53' E 005°02'0 0.4
2017-Sep-18 07:00N 60°53' E 005°02'0 0.7
2017-Sep-18 06:29N 60°53' E 005°02'1 1.7
2017-Sep-18 06:00N 60°52' E 005°02'2 4.0
2017-Sep-18 05:30N 60°50' E 005°02'3 6.0
2017-Sep-18 05:00N 60°51' E 004°56'3 6.5
2017-Sep-18 04:30N 60°51' E 004°49'3 6.3
2017-Sep-18 04:00N 60°49' E 004°44'4 8.4
2017-Sep-18 03:30N 60°45' E 004°47'4 8.8
2017-Sep-18 03:00N 60°41' E 004°50'5 9.4
2017-Sep-18 02:30N 60°37' E 004°54'5 9.6
2017-Sep-18 01:59N 60°32' E 004°57'510.1
2017-Sep-18 01:30N 60°27' E 005°01'5 9.6
2017-Sep-18 01:00N 60°24' E 005°08'4 8.5
2017-Sep-18 00:30N 60°20' E 005°09'5 9.4
2017-Sep-18 00:00N 60°15' E 005°09'5 9.6
2017-Sep-17 23:30N 60°11' E 005°14'4 8.0
2017-Sep-17 23:00N 60°07' E 005°16'0 0.0
2017-Sep-17 22:29N 60°07' E 005°16'2 5.1
2017-Sep-17 22:00N 60°09' E 005°15'4 8.3
2017-Sep-17 21:30N 60°13' E 005°13'0 0.0
2017-Sep-17 21:00N 60°13' E 005°13'1 2.2
2017-Sep-17 20:30N 60°13' E 005°10'4 8.7
2017-Sep-17 20:00N 60°18' E 005°12'3 6.6
2017-Sep-17 19:29N 60°14' E 005°09'510.7
2017-Sep-17 18:59N 60°09' E 005°11'510.5
2017-Sep-17 18:29N 60°04' E 005°10'4 7.7
2017-Sep-17 18:00N 60°01' E 005°05'0 0.1
2017-Sep-17 17:30N 60°01' E 005°05'0 0.0
2017-Sep-17 17:00N 60°01' E 005°05'0 0.0
2017-Sep-17 16:30N 60°01' E 005°05'0 0.0
2017-Sep-17 16:00N 60°01' E 005°05'0 0.0
2017-Sep-17 15:30N 60°01' E 005°05'0 0.0
2017-Sep-17 15:00N 60°01' E 005°05'0 0.0
2017-Sep-17 14:30N 60°01' E 005°05'0 0.0
2017-Sep-17 14:01N 60°01' E 005°05'0 0.2
2017-Sep-17 13:30N 60°01' E 005°05'4 8.7
2017-Sep-17 13:00N 60°05' E 005°08'3 6.4
2017-Sep-17 12:30N 60°08' E 005°07'3 5.8
2017-Sep-17 12:00N 60°10' E 005°11'1 1.7
2017-Sep-17 11:29N 60°10' E 005°13'1 1.4
2017-Sep-17 10:59N 60°09' E 005°14'0 0.0
2017-Sep-17 10:30N 60°09' E 005°14'1 2.0
2017-Sep-17 10:00N 60°09' E 005°16'510.9
2017-Sep-17 09:30N 60°04' E 005°19'510.8
2017-Sep-17 09:00N 59°59' E 005°23'611.7
2017-Sep-17 08:30N 59°54' E 005°31'611.3
2017-Sep-17 08:00N 59°49' E 005°33'2 4.8
2017-Sep-17 07:30N 59°47' E 005°30'0 0.0
2017-Sep-17 06:59N 59°47' E 005°30'0 0.0
2017-Sep-17 06:30N 59°47' E 005°30'0 0.0
2017-Sep-17 06:00N 59°47' E 005°30'0 0.0
2017-Sep-17 05:30N 59°47' E 005°30'0 0.0
2017-Sep-17 05:00N 59°47' E 005°30'0 0.0
2017-Sep-17 04:30N 59°47' E 005°30'0 0.0
2017-Sep-17 04:00N 59°47' E 005°30'0 0.0
2017-Sep-17 03:30N 59°47' E 005°30'0 0.0
2017-Sep-17 03:00N 59°47' E 005°30'0 0.0
2017-Sep-17 02:30N 59°47' E 005°30'0 0.0
2017-Sep-17 02:00N 59°47' E 005°30'0 0.0
2017-Sep-17 01:31N 59°47' E 005°30'0 0.0
2017-Sep-17 01:00N 59°47' E 005°30'0 0.0
2017-Sep-17 00:30N 59°47' E 005°30'0 0.0
2017-Sep-17 00:00N 59°47' E 005°30'0 0.0
2017-Sep-16 23:30N 59°47' E 005°30'0 0.0
2017-Sep-16 23:00N 59°47' E 005°30'0 0.0
2017-Sep-16 22:30N 59°47' E 005°30'0 0.0
2017-Sep-16 22:00N 59°47' E 005°30'0 0.0
2017-Sep-16 21:30N 59°47' E 005°30'0 0.0
2017-Sep-16 20:59N 59°47' E 005°30'0 0.0
2017-Sep-16 20:30N 59°47' E 005°30'0 0.0
2017-Sep-16 20:00N 59°47' E 005°30'0 0.0
2017-Sep-16 19:30N 59°47' E 005°30'0 0.0
2017-Sep-16 18:59N 59°47' E 005°30'0 0.0
2017-Sep-16 18:30N 59°47' E 005°30'0 0.0
2017-Sep-16 18:00N 59°47' E 005°30'0 0.0
2017-Sep-16 17:30N 59°47' E 005°30'0 0.0
2017-Sep-16 17:00N 59°47' E 005°30'0 0.0
2017-Sep-16 16:29N 59°47' E 005°30'0 0.0
2017-Sep-16 16:00N 59°47' E 005°30'0 0.0
2017-Sep-16 15:30N 59°47' E 005°30'0 0.0
2017-Sep-16 15:00N 59°47' E 005°30'0 0.0
2017-Sep-16 14:30N 59°47' E 005°30'0 0.0
2017-Sep-16 14:00N 59°47' E 005°30'0 0.0
2017-Sep-16 13:30N 59°47' E 005°30'0 0.0
2017-Sep-16 13:00N 59°47' E 005°30'0 0.0
2017-Sep-16 12:31N 59°47' E 005°30'0 0.0
2017-Sep-16 12:01N 59°47' E 005°30'0 0.0
2017-Sep-16 11:30N 59°47' E 005°30'0 0.2
2017-Sep-16 11:00N 59°47' E 005°30'3 7.0
2017-Sep-16 10:30N 59°50' E 005°33'510.2
2017-Sep-16 10:00N 59°55' E 005°30'3 5.4
2017-Sep-16 09:30N 59°57' E 005°27'5 9.0
2017-Sep-16 09:00N 59°59' E 005°19'5 9.5
2017-Sep-16 08:30N 60°01' E 005°10'1 1.1
2017-Sep-16 08:00N 60°02' E 005°10'2 3.7
2017-Sep-16 07:30N 60°02' E 005°07'1 2.5
2017-Sep-16 07:00N 60°01' E 005°05'2 3.3
2017-Sep-16 06:30N 60°00' E 005°07'0 0.0
2017-Sep-16 06:00N 60°00' E 005°07'0 0.0
2017-Sep-16 05:30N 60°00' E 005°07'0 0.0
2017-Sep-16 05:00N 60°00' E 005°07'0 0.0
2017-Sep-16 04:30N 60°00' E 005°07'0 0.0
2017-Sep-16 04:00N 60°00' E 005°07'0 0.0
2017-Sep-16 03:30N 60°00' E 005°07'0 0.0
2017-Sep-16 03:00N 60°00' E 005°07'0 0.0
2017-Sep-16 02:30N 60°00' E 005°07'0 0.0
2017-Sep-16 02:00N 60°00' E 005°07'0 0.0
2017-Sep-16 01:30N 60°00' E 005°07'0 0.0
2017-Sep-16 01:00N 60°00' E 005°07'0 0.0
2017-Sep-16 00:30N 60°00' E 005°07'0 0.0
2017-Sep-16 00:00N 60°00' E 005°07'0 0.0
2017-Sep-15 23:30N 60°00' E 005°07'0 0.0
2017-Sep-15 23:00N 60°00' E 005°07'0 0.0
2017-Sep-15 22:30N 60°00' E 005°07'0 0.0
2017-Sep-15 22:00N 60°00' E 005°07'0 0.0
2017-Sep-15 21:30N 60°00' E 005°07'0 0.0
2017-Sep-15 21:00N 60°00' E 005°07'0 0.0
2017-Sep-15 20:30N 60°00' E 005°07'0 0.0
2017-Sep-15 19:59N 60°00' E 005°07'0 0.0
2017-Sep-15 19:29N 60°00' E 005°07'0 0.0
2017-Sep-15 19:00N 60°00' E 005°07'0 0.0
2017-Sep-15 18:30N 60°00' E 005°07'0 0.0
2017-Sep-15 18:00N 60°00' E 005°07'0 0.0
2017-Sep-15 17:29N 60°00' E 005°07'0 0.0
2017-Sep-15 17:00N 60°00' E 005°07'0 0.0
2017-Sep-15 16:30N 60°00' E 005°07'0 0.0
2017-Sep-15 16:00N 60°00' E 005°07'3 6.5
2017-Sep-15 15:30N 60°03' E 005°10'510.1
2017-Sep-15 15:00N 60°08' E 005°12'4 8.6
2017-Sep-15 14:30N 60°07' E 005°21'2 3.1
2017-Sep-15 14:01N 60°08' E 005°24'3 5.9
2017-Sep-15 13:30N 60°09' E 005°18'4 8.3
2017-Sep-15 13:00N 60°10' E 005°11'3 5.3
2017-Sep-15 12:30N 60°08' E 005°07'0 0.0
2017-Sep-15 12:00N 60°08' E 005°07'0 0.1
2017-Sep-15 11:30N 60°08' E 005°07'0 0.0
2017-Sep-15 11:00N 60°08' E 005°07'0 0.0
2017-Sep-15 10:30N 60°08' E 005°07'0 0.0
2017-Sep-15 10:00N 60°08' E 005°07'0 0.0
2017-Sep-15 09:30N 60°08' E 005°07'0 0.0
2017-Sep-15 08:59N 60°08' E 005°07'0 0.0
2017-Sep-15 08:30N 60°08' E 005°07'0 0.3
2017-Sep-15 08:01N 60°08' E 005°07'0 0.2
2017-Sep-15 07:30N 60°08' E 005°07'5 9.8
2017-Sep-15 07:00N 60°04' E 005°08'3 5.5
2017-Sep-15 06:30N 60°01' E 005°05'1 2.5
2017-Sep-15 06:00N 60°02' E 005°07'510.2
2017-Sep-15 05:30N 60°07' E 005°11'510.4
2017-Sep-15 05:00N 60°12' E 005°11'510.6
2017-Sep-15 04:31N 60°17' E 005°09'5 9.6
2017-Sep-15 04:00N 60°22' E 005°10'5 9.5
2017-Sep-15 03:30N 60°25' E 005°03'510.5
2017-Sep-15 03:00N 60°30' E 004°59'510.6
2017-Sep-15 02:30N 60°35' E 004°55'  

Dump ship's entire track history